首页
METAR-TAF:

METAR-TAF

机场 :

本-古里安国际机场

特拉维夫 / 本·古里安, 以色列

纬度: 32-00N, 经度: 034-54E, 海拔: 40米

当前天气观测

该预报发布于37分钟前的00:20 UTC
风速2节,风向多变
温度 9°C
湿度 87%
气压 1019 hPa
能见度10公里或以上
1500米以下无云,无积雨云

METAR: LLBG 220020Z VRB02KT CAVOK 09/07 Q1019 NOSIG

时间: 02:57 (00:57 UTC)

预报

该预报发布于1小时和41分钟前的23:16 UTC
预报有效从22日的 00点(UTC)到 22日的 24点(UTC)
风速4节,风向东转东南
能见度10公里或以上
少量云层高于2500英尺
成为
从 22日的 07点(UTC)到 22日的 09点(UTC)
风速8节,风向西
散云层高于3000英尺
几率 30%
从 22日的 09点(UTC)到 22日的 15点(UTC)
少量云层高于2500英尺, 塔状积云.
多云层高于3000英尺
成为
从 22日的 15点(UTC)到 22日的 17点(UTC)
风速4节,风向东南

TAF: LLBG 212316Z 2200/2224 12004KT 9999 FEW025 BECMG 2207/2209 27008KT SCT030 PROB30 2209/2215 RA FEW025TCU BKN030 BECMG 2215/2217 13004KT TX17/2212Z TN08/2204Z

超过4000个机场的气象观测和天气预报(METAR&TAF报告)。

可查询的气象台以黄色和红色小点在地图上表示。

将鼠标移到小点上方,可查看气象台名称。

然后点击查看天气观测和预报。

如需切换地图:点击带黑十字的绿色按钮放大地图;点击带横线的绿色按钮缩小地图;或者点击绿色箭头查看邻近地区的地图。


METAR-TAF: